Time;durP1;ratioP1;P1;durP2;ratioP2;P2;SDS_P1;SDS_P2;PMS_P1;PMS_P2;Temp;Humidity;BMP_temperature;BMP_pressure;BME280_temperature;BME280_humidity;BME280_pressure;Samples;Min_cycle;Max_cycle;Signal;HPM_P1;HPM_P2
2023/12/12 04:55:57;;;;;;;2.92;1.90;;;;;;;;;;7630499;19;20371;-76
2023/12/12 04:58:30;;;;;;;6.78;2.10;;;;;;;;;;7644850;19;20073;-77
2023/12/12 05:01:03;;;;;;;3.53;2.10;;;;;;;;;;7643194;19;20019;-77
2023/12/12 05:03:36;;;;;;;;;;;;;;;;;;7642284;19;20644;-77
2023/12/12 05:06:09;;;;;;;3.42;2.67;;;;;;;;;;7643228;19;19926;-77
2023/12/12 05:08:43;;;;;;;4.30;2.08;;;;;;;;;;7640776;19;21024;-77
2023/12/12 05:11:16;;;;;;;4.65;2.28;;;;;;;;;;7633873;19;20030;-75
2023/12/12 05:13:48;;;;;;;3.75;2.55;;;;;;;;;;7648281;19;20634;-77
2023/12/12 05:16:21;;;;;;;8.52;2.95;;;;;;;;;;7636821;19;20020;-75
2023/12/12 05:19:03;;;;;;;6.05;2.20;;;;;;;;;;7636156;19;20029;-75
2023/12/12 05:21:37;;;;;;;7.28;2.25;;;;;;;;;;7638973;19;20014;-75
2023/12/12 05:24:11;;;;;;;6.57;2.08;;;;;;;;;;7628350;19;20796;-76
2023/12/12 05:26:44;;;;;;;4.57;2.30;;;;;;;;;;7627725;19;20097;-76
2023/12/12 05:29:19;;;;;;;7.53;2.63;;;;;;;;;;7625808;19;20364;-75
2023/12/12 05:31:52;;;;;;;8.75;3.05;;;;;;;;;;7604307;19;20019;-76
2023/12/12 05:34:25;;;;;;;4.18;2.50;;;;;;;;;;7603045;19;20014;-75
2023/12/12 05:36:58;;;;;;;10.63;3.05;;;;;;;;;;7625884;19;20105;-76
2023/12/12 05:39:31;;;;;;;8.13;3.40;;;;;;;;;;7637759;19;20492;-75
2023/12/12 05:42:05;;;;;;;10.18;3.85;;;;;;;;;;7629899;19;20120;-76
2023/12/12 05:44:38;;;;;;;6.13;3.53;;;;;;;;;;7628721;19;20018;-76
2023/12/12 05:47:11;;;;;;;7.07;2.72;;;;;;;;;;7637492;19;20010;-75
2023/12/12 05:49:44;;;;;;;5.25;2.13;;;;;;;;;;7631425;19;20594;-75
2023/12/12 05:52:17;;;;;;;6.70;2.85;;;;;;;;;;7621043;19;20686;-76
2023/12/12 05:54:50;;;;;;;11.25;3.15;;;;;;;;;;7625820;19;20007;-77
2023/12/12 05:57:23;;;;;;;4.82;2.25;;;;;;;;;;7630072;19;20018;-76
2023/12/12 05:59:56;;;;;;;5.03;2.80;;;;;;;;;;7629550;19;20010;-76
2023/12/12 06:02:30;;;;;;;6.85;2.65;;;;;;;;;;7594047;19;20025;-76
2023/12/12 06:05:07;;;;;;;7.80;2.50;;;;;;;;;;7607563;19;20022;-78
2023/12/12 06:07:42;;;;;;;6.85;3.25;;;;;;;;;;7579284;19;20026;-75
2023/12/12 06:10:18;;;;;;;6.82;2.65;;;;;;;;;;7595066;19;20049;-77
2023/12/12 06:12:53;;;;;;;5.53;2.65;;;;;;;;;;7570712;19;20093;-76
2023/12/12 06:15:26;;;;;;;7.78;2.85;;;;;;;;;;7600803;19;21461;-75
2023/12/12 06:17:59;;;;;;;6.55;2.78;;;;;;;;;;7588409;19;20492;-75
2023/12/12 06:20:35;;;;;;;7.75;2.67;;;;;;;;;;7596211;19;20022;-75
2023/12/12 06:23:08;;;;;;;7.57;2.90;;;;;;;;;;7590668;19;20017;-75
2023/12/12 06:25:42;;;;;;;5.05;2.63;;;;;;;;;;7591872;19;20553;-77
2023/12/12 06:28:15;;;;;;;10.07;3.00;;;;;;;;;;7559028;19;20019;-77
2023/12/12 15:13:10;;;;;;;8.10;4.95;;;;;;;;;;7633149;19;20379;-74
2023/12/12 15:15:48;;;;;;;8.70;4.50;;;;;;;;;;7616316;19;20017;-75
2023/12/12 15:18:20;;;;;;;14.98;7.10;;;;;;;;;;7605255;19;20015;-75
2023/12/12 15:20:55;;;;;;;10.77;5.45;;;;;;;;;;7605249;19;20030;-75
2023/12/12 15:23:28;;;;;;;9.45;4.45;;;;;;;;;;7620956;19;20018;-75
2023/12/12 15:26:04;;;;;;;8.27;4.55;;;;;;;;;;7604777;19;20018;-75
2023/12/12 15:28:37;;;;;;;9.43;3.83;;;;;;;;;;7600612;19;20017;-75
2023/12/12 15:31:10;;;;;;;7.40;4.33;;;;;;;;;;7611150;19;20010;-74
2023/12/12 15:33:43;;;;;;;5.57;3.25;;;;;;;;;;7619025;19;20022;-75
2023/12/12 15:36:17;;;;;;;5.80;3.75;;;;;;;;;;7618095;19;20029;-75
2023/12/12 15:38:50;;;;;;;8.30;3.72;;;;;;;;;;7606991;19;20006;-75
2023/12/12 15:41:22;;;;;;;7.93;4.27;;;;;;;;;;7586880;19;20018;-75
2023/12/12 15:43:55;;;;;;;10.43;4.33;;;;;;;;;;7607555;19;20081;-76
2023/12/12 15:46:28;;;;;;;9.30;4.57;;;;;;;;;;7615354;19;20285;-75
2023/12/12 15:49:05;;;;;;;7.35;4.82;;;;;;;;;;7615271;19;20067;-75
2023/12/12 15:51:38;;;;;;;10.07;4.82;;;;;;;;;;7611994;19;20057;-77
2023/12/12 15:54:10;;;;;;;10.65;5.65;;;;;;;;;;7578422;19;20029;-75
2023/12/12 15:56:46;;;;;;;6.75;4.80;;;;;;;;;;7594939;19;20880;-74
2023/12/12 15:59:19;;;;;;;6.07;4.13;;;;;;;;;;7605087;19;20565;-75
2023/12/12 16:01:52;;;;;;;6.25;3.92;;;;;;;;;;7600744;19;21022;-76
2023/12/12 16:04:25;;;;;;;8.20;4.13;;;;;;;;;;7590238;19;20571;-75
2023/12/12 16:06:59;;;;;;;7.70;4.30;;;;;;;;;;7609637;19;20327;-75
2023/12/12 16:09:31;;;;;;;5.93;3.80;;;;;;;;;;7608728;19;20081;-75
2023/12/12 16:12:05;;;;;;;5.85;3.50;;;;;;;;;;7578262;19;20014;-74
2023/12/12 16:14:38;;;;;;;6.70;3.83;;;;;;;;;;7538855;19;20048;-74
2023/12/12 16:17:13;;;;;;;6.00;3.78;;;;;;;;;;7531807;19;20014;-75
2023/12/12 16:19:45;;;;;;;8.82;4.30;;;;;;;;;;7592010;19;20010;-75
2023/12/12 16:22:19;;;;;;;7.37;5.00;;;;;;;;;;7560475;19;20014;-76
2023/12/12 16:24:52;;;;;;;8.38;3.88;;;;;;;;;;7550778;19;20767;-78
2023/12/12 16:27:25;;;;;;;8.50;4.17;;;;;;;;;;7542737;19;20018;-77
2023/12/12 16:29:58;;;;;;;5.80;4.03;;;;;;;;;;7542004;19;21159;-78
2023/12/12 16:32:37;;;;;;;5.93;4.03;;;;;;;;;;7535315;19;20014;-75
2023/12/12 16:35:12;;;;;;;10.35;5.20;;;;;;;;;;7565981;19;20014;-76
2023/12/12 16:37:45;;;;;;;10.52;5.47;;;;;;;;;;7574730;19;20010;-76
2023/12/12 16:40:19;;;;;;;10.15;5.38;;;;;;;;;;7536530;19;20616;-75
2023/12/12 16:42:52;;;;;;;7.82;4.75;;;;;;;;;;7548236;19;20065;-75
2023/12/12 16:45:27;;;;;;;9.27;5.20;;;;;;;;;;7554887;19;20049;-75
2023/12/12 16:48:03;;;;;;;9.65;6.00;;;;;;;;;;7544340;19;20022;-75
2023/12/12 16:50:40;;;;;;;7.65;5.40;;;;;;;;;;7522660;19;20107;-75
2023/12/12 16:53:19;;;;;;;7.53;5.18;;;;;;;;;;7555415;19;20022;-75
2023/12/12 16:55:52;;;;;;;11.57;5.07;;;;;;;;;;7553221;19;20948;-75
2023/12/12 16:58:30;;;;;;;5.90;4.35;;;;;;;;;;7558611;19;20683;-76
2023/12/12 17:01:07;;;;;;;9.27;5.20;;;;;;;;;;7522379;19;20017;-76
2023/12/12 17:03:43;;;;;;;7.47;4.95;;;;;;;;;;7539855;19;20122;-76
2023/12/12 17:06:17;;;;;;;5.88;3.20;;;;;;;;;;7545614;19;20508;-75
2023/12/12 17:08:50;;;;;;;;;;;;;;;;;;7545116;19;20014;-75
2023/12/12 17:11:24;;;;;;;10.13;5.00;;;;;;;;;;7568979;19;20006;-76
2023/12/12 17:13:59;;;;;;;3.10;2.58;;;;;;;;;;7566274;19;21035;-76
2023/12/12 17:16:35;;;;;;;7.47;3.83;;;;;;;;;;7574803;19;20628;-76
2023/12/12 17:19:07;;;;;;;6.78;4.10;;;;;;;;;;7547513;19;20010;-76
2023/12/12 17:21:41;;;;;;;9.27;3.60;;;;;;;;;;7562522;19;20014;-76
2023/12/12 17:27:56;;;;;;;8.07;4.95;;;;;;;;;;7547859;19;20010;-75
2023/12/12 17:30:37;;;;;;;8.60;4.60;;;;;;;;;;7560009;19;20021;-75
2023/12/12 17:33:18;;;;;;;9.23;3.77;;;;;;;;;;7534231;19;20014;-76
2023/12/12 17:36:11;;;;;;;;;;;;;;;;;;7555071;19;20275;-77
2023/12/12 17:38:51;;;;;;;6.15;4.30;;;;;;;;;;7573505;19;19994;-77
2023/12/12 17:41:28;;;;;;;7.90;4.78;;;;;;;;;;7546522;19;20948;-76
2023/12/12 17:47:26;;;;;;;6.85;4.60;;;;;;;;;;7527700;19;20524;-77
2023/12/12 17:50:02;;;;;;;5.88;3.60;;;;;;;;;;7569335;19;21419;-75
2023/12/12 17:52:35;;;;;;;4.38;3.33;;;;;;;;;;7544290;19;20052;-75
2023/12/12 17:55:08;;;;;;;;;;;;;;;;;;7539601;19;20015;-74
2023/12/12 17:57:41;;;;;;;6.22;2.70;;;;;;;;;;7560946;19;19922;-75
2023/12/12 18:00:14;;;;;;;4.07;3.08;;;;;;;;;;7558070;19;20137;-74
2023/12/12 18:02:47;;;;;;;7.32;3.53;;;;;;;;;;7556402;19;20014;-74
2023/12/12 18:05:21;;;;;;;4.00;3.43;;;;;;;;;;7540127;19;20037;-75
2023/12/12 18:07:54;;;;;;;5.40;3.97;;;;;;;;;;7566269;19;20345;-74
2023/12/12 18:10:27;;;;;;;4.33;2.53;;;;;;;;;;7555121;19;21258;-74
2023/12/12 18:13:00;;;;;;;5.18;3.60;;;;;;;;;;7558020;19;20362;-77
2023/12/12 18:15:33;;;;;;;5.32;3.05;;;;;;;;;;7547379;19;20925;-77
2023/12/12 18:18:09;;;;;;;3.80;2.60;;;;;;;;;;7544937;19;20058;-74
2023/12/12 18:20:42;;;;;;;5.30;3.30;;;;;;;;;;7569545;19;20022;-77
2023/12/12 18:23:15;;;;;;;10.52;5.03;;;;;;;;;;7567192;19;20609;-77
2023/12/12 18:25:48;;;;;;;6.73;4.03;;;;;;;;;;7560689;19;20033;-77
2023/12/12 18:28:21;;;;;;;8.43;4.63;;;;;;;;;;7554768;19;20019;-76
2023/12/12 18:30:53;;;;;;;8.13;4.75;;;;;;;;;;7551235;19;20022;-76
2023/12/12 18:33:30;;;;;;;7.60;4.70;;;;;;;;;;7530192;19;20047;-76
2023/12/12 18:36:03;;;;;;;12.90;5.85;;;;;;;;;;7564201;19;20027;-76
2023/12/12 18:38:36;;;;;;;;;;;;;;;;;;7557109;19;20048;-73
2023/12/12 18:41:10;;;;;;;16.58;8.13;;;;;;;;;;7567148;19;19991;-76
2023/12/12 18:43:45;;;;;;;17.08;8.82;;;;;;;;;;7554769;19;20107;-76
2023/12/12 18:46:18;;;;;;;14.43;7.65;;;;;;;;;;7537046;19;20011;-76
2023/12/12 18:48:51;;;;;;;14.67;8.70;;;;;;;;;;7557796;19;20022;-74
2023/12/12 18:51:24;;;;;;;13.57;7.97;;;;;;;;;;7554644;19;20036;-76
2023/12/12 18:53:57;;;;;;;14.57;8.57;;;;;;;;;;7535803;19;20022;-76
2023/12/12 18:56:29;;;;;;;10.05;7.45;;;;;;;;;;7557272;19;20014;-76
2023/12/12 18:59:02;;;;;;;15.10;8.73;;;;;;;;;;7557897;19;21030;-76
2023/12/12 19:01:34;;;;;;;15.65;9.80;;;;;;;;;;7551812;19;20626;-74
2023/12/12 19:04:07;;;;;;;13.57;7.97;;;;;;;;;;7557529;19;20011;-74
2023/12/12 19:06:40;;;;;;;16.67;9.20;;;;;;;;;;7547005;19;20279;-77
2023/12/12 19:09:13;;;;;;;12.88;9.27;;;;;;;;;;7523597;19;20148;-77
2023/12/12 19:11:45;;;;;;;13.87;8.97;;;;;;;;;;7549779;19;20441;-74
2023/12/12 19:14:18;;;;;;;37.75;25.88;;;;;;;;;;7049405;19;10000525;-75
2023/12/12 19:16:51;;;;;;;20.70;11.77;;;;;;;;;;7552547;19;20269;-76
2023/12/12 19:19:24;;;;;;;19.42;11.50;;;;;;;;;;7573326;19;20851;-75
2023/12/12 19:21:57;;;;;;;16.27;10.37;;;;;;;;;;7576240;19;20018;-77
2023/12/12 19:24:30;;;;;;;22.13;13.30;;;;;;;;;;7577328;19;20291;-78
2023/12/12 19:27:02;;;;;;;15.20;10.73;;;;;;;;;;7565493;19;20028;-77
2023/12/12 19:29:36;;;;;;;14.80;9.68;;;;;;;;;;7562490;19;20014;-77
2023/12/12 19:32:09;;;;;;;15.27;9.25;;;;;;;;;;7573976;19;20014;-76
2023/12/12 19:34:42;;;;;;;13.73;9.43;;;;;;;;;;7569690;19;20025;-76
2023/12/12 19:37:15;;;;;;;12.63;7.97;;;;;;;;;;7567810;19;22191;-75
2023/12/12 19:39:47;;;;;;;8.07;6.37;;;;;;;;;;7583871;19;20014;-76
2023/12/12 19:42:20;;;;;;;10.85;8.52;;;;;;;;;;7575264;19;20021;-76
2023/12/12 19:44:53;;;;;;;10.90;7.37;;;;;;;;;;7582172;19;20598;-76
2023/12/12 19:47:26;;;;;;;9.73;6.47;;;;;;;;;;7561038;19;20011;-75
2023/12/12 19:49:58;;;;;;;10.47;6.87;;;;;;;;;;7571148;19;20456;-75
2023/12/12 19:52:36;;;;;;;12.57;7.85;;;;;;;;;;7568107;19;20051;-76
2023/12/12 19:55:09;;;;;;;14.43;8.33;;;;;;;;;;7577486;19;20624;-77
2023/12/12 19:57:42;;;;;;;14.60;9.52;;;;;;;;;;7570591;19;20283;-75
2023/12/12 20:00:15;;;;;;;11.57;7.47;;;;;;;;;;7572180;19;20060;-77
2023/12/12 20:02:47;;;;;;;12.13;6.73;;;;;;;;;;7577087;19;20029;-77
2023/12/12 20:05:20;;;;;;;9.23;6.55;;;;;;;;;;7575767;19;20019;-77
2023/12/12 20:07:52;;;;;;;12.18;7.07;;;;;;;;;;7582054;19;20022;-75
2023/12/12 20:10:30;;;;;;;13.95;9.60;;;;;;;;;;7576467;19;20375;-74
2023/12/12 20:13:03;;;;;;;10.48;7.03;;;;;;;;;;7562167;19;20070;-75
2023/12/12 20:15:36;;;;;;;11.05;7.38;;;;;;;;;;7566956;19;20962;-75
2023/12/12 20:18:09;;;;;;;10.02;5.88;;;;;;;;;;7570570;19;20021;-75
2023/12/12 20:20:42;;;;;;;13.73;7.25;;;;;;;;;;7559900;19;20141;-75
2023/12/12 20:23:17;;;;;;;10.57;7.40;;;;;;;;;;7569114;19;21243;-75
2023/12/12 20:25:50;;;;;;;15.18;8.82;;;;;;;;;;7568219;19;20017;-77
2023/12/12 20:28:23;;;;;;;16.40;9.32;;;;;;;;;;7574131;19;20018;-76
2023/12/12 20:30:56;;;;;;;14.57;8.63;;;;;;;;;;7564484;19;20014;-76
2023/12/12 20:33:30;;;;;;;19.42;11.25;;;;;;;;;;7560928;19;20283;-76
2023/12/12 20:36:03;;;;;;;15.90;9.90;;;;;;;;;;7556815;19;20495;-76
2023/12/12 20:38:37;;;;;;;17.33;11.52;;;;;;;;;;7550235;19;20022;-76
2023/12/12 20:41:11;;;;;;;20.45;11.55;;;;;;;;;;7594706;19;20633;-76
